sensor_id;sensor_type;location;lat;lon;timestamp;P1;durP1;ratioP1;P2;durP2;ratioP2
72319;SDS011;60269;52.502;16.732;2023-03-01T00:02:31;57.07;;;20.57;;
72319;SDS011;60269;52.502;16.732;2023-03-01T00:06:03;50.22;;;19.05;;
72319;SDS011;60269;52.502;16.732;2023-03-01T00:09:37;61.35;;;20.58;;
72319;SDS011;60269;52.502;16.732;2023-03-01T00:13:10;71.77;;;22.20;;
72319;SDS011;60269;52.502;16.732;2023-03-01T00:16:42;66.43;;;23.33;;
72319;SDS011;60269;52.502;16.732;2023-03-01T00:20:15;75.75;;;26.00;;
72319;SDS011;60269;52.502;16.732;2023-03-01T00:23:48;84.93;;;26.27;;
72319;SDS011;60269;52.502;16.732;2023-03-01T00:27:21;79.13;;;26.17;;
72319;SDS011;60269;52.502;16.732;2023-03-01T00:30:53;70.90;;;25.60;;
72319;SDS011;60269;52.502;16.732;2023-03-01T00:34:24;81.85;;;27.00;;
72319;SDS011;60269;52.502;16.732;2023-03-01T00:37:57;73.33;;;25.67;;
72319;SDS011;60269;52.502;16.732;2023-03-01T00:41:29;79.97;;;26.90;;
72319;SDS011;60269;52.502;16.732;2023-03-01T00:45:01;77.45;;;26.45;;
72319;SDS011;60269;52.502;16.732;2023-03-01T00:48:34;73.37;;;24.17;;
72319;SDS011;60269;52.502;16.732;2023-03-01T00:52:07;65.18;;;22.35;;
72319;SDS011;60269;52.502;16.732;2023-03-01T00:55:39;58.92;;;22.00;;
72319;SDS011;60269;52.502;16.732;2023-03-01T00:59:11;67.45;;;23.33;;
72319;SDS011;60269;52.502;16.732;2023-03-01T01:02:44;74.83;;;23.53;;
72319;SDS011;60269;52.502;16.732;2023-03-01T01:06:27;63.22;;;24.50;;
72319;SDS011;60269;52.502;16.732;2023-03-01T01:10:07;62.40;;;23.58;;
72319;SDS011;60269;52.502;16.732;2023-03-01T01:13:39;59.73;;;22.63;;
72319;SDS011;60269;52.502;16.732;2023-03-01T01:17:12;67.88;;;21.80;;
72319;SDS011;60269;52.502;16.732;2023-03-01T01:20:44;74.53;;;22.83;;
72319;SDS011;60269;52.502;16.732;2023-03-01T01:24:16;65.73;;;21.97;;
72319;SDS011;60269;52.502;16.732;2023-03-01T01:27:49;59.47;;;21.05;;
72319;SDS011;60269;52.502;16.732;2023-03-01T01:31:22;62.75;;;21.92;;
72319;SDS011;60269;52.502;16.732;2023-03-01T01:34:55;56.72;;;20.15;;
72319;SDS011;60269;52.502;16.732;2023-03-01T01:38:28;54.53;;;19.67;;
72319;SDS011;60269;52.502;16.732;2023-03-01T01:42:00;65.20;;;22.65;;
72319;SDS011;60269;52.502;16.732;2023-03-01T01:45:34;53.75;;;18.27;;
72319;SDS011;60269;52.502;16.732;2023-03-01T01:49:10;69.13;;;20.93;;
72319;SDS011;60269;52.502;16.732;2023-03-01T01:52:48;62.40;;;20.73;;
72319;SDS011;60269;52.502;16.732;2023-03-01T01:56:22;48.08;;;17.67;;
72319;SDS011;60269;52.502;16.732;2023-03-01T01:59:57;53.57;;;18.40;;
72319;SDS011;60269;52.502;16.732;2023-03-01T02:03:32;59.20;;;17.92;;
72319;SDS011;60269;52.502;16.732;2023-03-01T02:07:12;54.35;;;19.02;;
72319;SDS011;60269;52.502;16.732;2023-03-01T02:10:49;57.53;;;19.33;;
72319;SDS011;60269;52.502;16.732;2023-03-01T02:14:23;57.03;;;19.50;;
72319;SDS011;60269;52.502;16.732;2023-03-01T02:17:55;62.05;;;21.70;;
72319;SDS011;60269;52.502;16.732;2023-03-01T02:25:31;63.47;;;20.63;;
72319;SDS011;60269;52.502;16.732;2023-03-01T02:29:09;46.50;;;15.68;;
72319;SDS011;60269;52.502;16.732;2023-03-01T02:32:41;48.50;;;18.15;;
72319;SDS011;60269;52.502;16.732;2023-03-01T02:36:15;53.23;;;17.90;;
72319;SDS011;60269;52.502;16.732;2023-03-01T02:39:53;49.22;;;17.70;;
72319;SDS011;60269;52.502;16.732;2023-03-01T02:43:30;54.33;;;16.75;;
72319;SDS011;60269;52.502;16.732;2023-03-01T02:47:04;51.97;;;19.05;;
72319;SDS011;60269;52.502;16.732;2023-03-01T02:50:46;50.30;;;17.90;;
72319;SDS011;60269;52.502;16.732;2023-03-01T02:58:12;41.20;;;14.57;;
72319;SDS011;60269;52.502;16.732;2023-03-01T03:01:45;40.97;;;16.17;;
72319;SDS011;60269;52.502;16.732;2023-03-01T03:05:19;47.40;;;16.08;;
72319;SDS011;60269;52.502;16.732;2023-03-01T03:08:53;48.22;;;17.13;;
72319;SDS011;60269;52.502;16.732;2023-03-01T03:12:25;39.87;;;15.17;;
72319;SDS011;60269;52.502;16.732;2023-03-01T03:15:57;48.05;;;16.17;;
72319;SDS011;60269;52.502;16.732;2023-03-01T03:19:29;49.60;;;15.90;;
72319;SDS011;60269;52.502;16.732;2023-03-01T03:23:01;46.80;;;15.20;;
72319;SDS011;60269;52.502;16.732;2023-03-01T03:26:34;44.57;;;17.17;;
72319;SDS011;60269;52.502;16.732;2023-03-01T03:30:07;42.03;;;13.57;;
72319;SDS011;60269;52.502;16.732;2023-03-01T03:33:40;53.88;;;16.02;;
72319;SDS011;60269;52.502;16.732;2023-03-01T03:37:12;36.67;;;15.63;;
72319;SDS011;60269;52.502;16.732;2023-03-01T03:41:06;43.65;;;15.57;;
72319;SDS011;60269;52.502;16.732;2023-03-01T03:44:39;46.15;;;14.13;;
72319;SDS011;60269;52.502;16.732;2023-03-01T03:48:11;49.03;;;15.53;;
72319;SDS011;60269;52.502;16.732;2023-03-01T03:51:45;42.75;;;13.63;;
72319;SDS011;60269;52.502;16.732;2023-03-01T03:55:18;41.60;;;14.50;;
72319;SDS011;60269;52.502;16.732;2023-03-01T03:58:51;40.78;;;14.23;;
72319;SDS011;60269;52.502;16.732;2023-03-01T04:02:24;45.43;;;14.80;;
72319;SDS011;60269;52.502;16.732;2023-03-01T04:05:57;42.35;;;13.68;;
72319;SDS011;60269;52.502;16.732;2023-03-01T04:09:30;38.00;;;14.68;;
72319;SDS011;60269;52.502;16.732;2023-03-01T04:13:02;39.00;;;13.77;;
72319;SDS011;60269;52.502;16.732;2023-03-01T04:16:35;40.67;;;14.50;;
72319;SDS011;60269;52.502;16.732;2023-03-01T04:20:09;42.75;;;14.45;;
72319;SDS011;60269;52.502;16.732;2023-03-01T04:23:45;48.47;;;17.17;;
72319;SDS011;60269;52.502;16.732;2023-03-01T04:27:17;46.92;;;15.50;;
72319;SDS011;60269;52.502;16.732;2023-03-01T04:30:49;46.95;;;16.92;;
72319;SDS011;60269;52.502;16.732;2023-03-01T04:34:22;43.03;;;14.45;;
72319;SDS011;60269;52.502;16.732;2023-03-01T04:37:55;41.47;;;14.90;;
72319;SDS011;60269;52.502;16.732;2023-03-01T04:41:26;39.10;;;12.40;;
72319;SDS011;60269;52.502;16.732;2023-03-01T04:45:00;44.10;;;14.82;;
72319;SDS011;60269;52.502;16.732;2023-03-01T04:48:32;46.17;;;15.67;;
72319;SDS011;60269;52.502;16.732;2023-03-01T04:52:04;44.08;;;15.80;;
72319;SDS011;60269;52.502;16.732;2023-03-01T04:55:37;53.63;;;17.00;;
72319;SDS011;60269;52.502;16.732;2023-03-01T04:59:10;55.10;;;16.23;;
72319;SDS011;60269;52.502;16.732;2023-03-01T05:02:44;48.33;;;17.88;;
72319;SDS011;60269;52.502;16.732;2023-03-01T05:06:16;56.83;;;19.17;;
72319;SDS011;60269;52.502;16.732;2023-03-01T05:09:50;47.42;;;17.05;;
72319;SDS011;60269;52.502;16.732;2023-03-01T05:13:27;54.57;;;17.93;;
72319;SDS011;60269;52.502;16.732;2023-03-01T05:17:01;58.00;;;20.92;;
72319;SDS011;60269;52.502;16.732;2023-03-01T05:20:36;57.13;;;20.05;;
72319;SDS011;60269;52.502;16.732;2023-03-01T05:24:09;62.30;;;19.47;;
72319;SDS011;60269;52.502;16.732;2023-03-01T05:27:43;51.80;;;18.00;;
72319;SDS011;60269;52.502;16.732;2023-03-01T05:31:15;46.65;;;17.35;;
72319;SDS011;60269;52.502;16.732;2023-03-01T05:34:47;52.87;;;17.00;;
72319;SDS011;60269;52.502;16.732;2023-03-01T05:38:20;54.38;;;18.55;;
72319;SDS011;60269;52.502;16.732;2023-03-01T05:41:53;47.60;;;16.80;;
72319;SDS011;60269;52.502;16.732;2023-03-01T05:45:26;35.75;;;14.18;;
72319;SDS011;60269;52.502;16.732;2023-03-01T05:48:59;43.23;;;13.87;;
72319;SDS011;60269;52.502;16.732;2023-03-01T05:52:31;47.78;;;16.48;;
72319;SDS011;60269;52.502;16.732;2023-03-01T05:56:04;49.72;;;16.08;;
72319;SDS011;60269;52.502;16.732;2023-03-01T05:59:36;56.70;;;17.60;;
72319;SDS011;60269;52.502;16.732;2023-03-01T06:03:09;50.05;;;18.65;;
72319;SDS011;60269;52.502;16.732;2023-03-01T06:06:42;53.22;;;17.73;;
72319;SDS011;60269;52.502;16.732;2023-03-01T06:10:14;39.17;;;16.43;;
72319;SDS011;60269;52.502;16.732;2023-03-01T06:13:49;45.50;;;16.20;;
72319;SDS011;60269;52.502;16.732;2023-03-01T06:17:21;54.53;;;18.35;;
72319;SDS011;60269;52.502;16.732;2023-03-01T06:20:54;38.40;;;15.07;;
72319;SDS011;60269;52.502;16.732;2023-03-01T06:24:27;50.00;;;17.00;;
72319;SDS011;60269;52.502;16.732;2023-03-01T06:28:00;51.05;;;15.38;;
72319;SDS011;60269;52.502;16.732;2023-03-01T06:31:32;34.53;;;14.55;;
72319;SDS011;60269;52.502;16.732;2023-03-01T06:35:04;51.97;;;16.70;;
72319;SDS011;60269;52.502;16.732;2023-03-01T06:38:37;41.95;;;14.55;;
72319;SDS011;60269;52.502;16.732;2023-03-01T06:42:09;41.50;;;15.27;;
72319;SDS011;60269;52.502;16.732;2023-03-01T06:45:42;47.13;;;14.73;;
72319;SDS011;60269;52.502;16.732;2023-03-01T06:49:14;44.78;;;14.68;;
72319;SDS011;60269;52.502;16.732;2023-03-01T06:52:47;39.58;;;12.90;;
72319;SDS011;60269;52.502;16.732;2023-03-01T06:56:19;44.75;;;14.02;;
72319;SDS011;60269;52.502;16.732;2023-03-01T06:59:52;38.10;;;11.23;;
72319;SDS011;60269;52.502;16.732;2023-03-01T07:03:24;40.35;;;12.63;;
72319;SDS011;60269;52.502;16.732;2023-03-01T07:06:58;44.92;;;12.88;;
72319;SDS011;60269;52.502;16.732;2023-03-01T07:10:30;33.50;;;11.47;;
72319;SDS011;60269;52.502;16.732;2023-03-01T07:14:03;38.85;;;11.80;;
72319;SDS011;60269;52.502;16.732;2023-03-01T07:17:35;36.90;;;14.20;;
72319;SDS011;60269;52.502;16.732;2023-03-01T07:21:07;38.67;;;14.47;;
72319;SDS011;60269;52.502;16.732;2023-03-01T07:24:42;38.03;;;13.38;;
72319;SDS011;60269;52.502;16.732;2023-03-01T07:28:14;43.65;;;14.73;;
72319;SDS011;60269;52.502;16.732;2023-03-01T07:31:46;32.88;;;11.70;;
72319;SDS011;60269;52.502;16.732;2023-03-01T07:35:18;36.30;;;12.37;;
72319;SDS011;60269;52.502;16.732;2023-03-01T07:38:50;44.05;;;12.70;;
72319;SDS011;60269;52.502;16.732;2023-03-01T07:42:23;29.80;;;10.82;;
72319;SDS011;60269;52.502;16.732;2023-03-01T07:45:57;43.00;;;13.37;;
72319;SDS011;60269;52.502;16.732;2023-03-01T07:49:30;25.85;;;10.63;;
72319;SDS011;60269;52.502;16.732;2023-03-01T07:53:02;25.35;;;9.23;;
72319;SDS011;60269;52.502;16.732;2023-03-01T07:56:34;33.17;;;11.63;;
72319;SDS011;60269;52.502;16.732;2023-03-01T08:00:09;28.35;;;11.63;;
72319;SDS011;60269;52.502;16.732;2023-03-01T08:03:43;26.98;;;10.23;;
72319;SDS011;60269;52.502;16.732;2023-03-01T08:07:15;31.80;;;11.20;;
72319;SDS011;60269;52.502;16.732;2023-03-01T08:10:47;27.87;;;9.77;;
72319;SDS011;60269;52.502;16.732;2023-03-01T08:14:19;26.40;;;10.13;;
72319;SDS011;60269;52.502;16.732;2023-03-01T08:17:51;27.58;;;9.13;;
72319;SDS011;60269;52.502;16.732;2023-03-01T08:21:23;20.53;;;8.40;;
72319;SDS011;60269;52.502;16.732;2023-03-01T08:24:55;24.60;;;8.65;;
72319;SDS011;60269;52.502;16.732;2023-03-01T08:28:27;27.05;;;10.63;;
72319;SDS011;60269;52.502;16.732;2023-03-01T08:31:59;24.53;;;9.10;;
72319;SDS011;60269;52.502;16.732;2023-03-01T08:35:32;19.38;;;7.85;;
72319;SDS011;60269;52.502;16.732;2023-03-01T08:39:04;21.88;;;8.30;;
72319;SDS011;60269;52.502;16.732;2023-03-01T08:42:37;21.83;;;8.63;;
72319;SDS011;60269;52.502;16.732;2023-03-01T08:46:10;24.27;;;8.63;;
72319;SDS011;60269;52.502;16.732;2023-03-01T08:49:42;18.98;;;8.38;;
72319;SDS011;60269;52.502;16.732;2023-03-01T08:53:14;19.23;;;6.82;;
72319;SDS011;60269;52.502;16.732;2023-03-01T08:56:47;23.17;;;7.40;;
72319;SDS011;60269;52.502;16.732;2023-03-01T09:00:20;18.35;;;6.63;;
72319;SDS011;60269;52.502;16.732;2023-03-01T09:03:52;18.40;;;5.88;;
72319;SDS011;60269;52.502;16.732;2023-03-01T09:07:26;19.03;;;6.60;;
72319;SDS011;60269;52.502;16.732;2023-03-01T09:11:01;18.80;;;6.28;;
72319;SDS011;60269;52.502;16.732;2023-03-01T09:14:34;23.20;;;7.38;;
72319;SDS011;60269;52.502;16.732;2023-03-01T09:18:09;17.92;;;6.70;;
72319;SDS011;60269;52.502;16.732;2023-03-01T09:21:41;15.93;;;4.90;;
72319;SDS011;60269;52.502;16.732;2023-03-01T09:25:24;18.65;;;5.95;;
72319;SDS011;60269;52.502;16.732;2023-03-01T09:28:56;16.80;;;6.07;;
72319;SDS011;60269;52.502;16.732;2023-03-01T09:32:30;16.90;;;5.47;;
72319;SDS011;60269;52.502;16.732;2023-03-01T09:36:04;37.47;;;7.03;;
72319;SDS011;60269;52.502;16.732;2023-03-01T09:39:38;17.13;;;5.43;;
72319;SDS011;60269;52.502;16.732;2023-03-01T09:47:12;12.32;;;4.88;;
72319;SDS011;60269;52.502;16.732;2023-03-01T09:50:58;19.25;;;5.45;;
72319;SDS011;60269;52.502;16.732;2023-03-01T09:54:38;17.50;;;6.43;;
72319;SDS011;60269;52.502;16.732;2023-03-01T10:10:08;14.87;;;4.20;;
72319;SDS011;60269;52.502;16.732;2023-03-01T10:17:42;16.83;;;5.18;;
72319;SDS011;60269;52.502;16.732;2023-03-01T10:21:20;12.67;;;4.83;;
72319;SDS011;60269;52.502;16.732;2023-03-01T10:24:52;15.10;;;5.78;;
72319;SDS011;60269;52.502;16.732;2023-03-01T10:32:06;15.65;;;5.28;;
72319;SDS011;60269;52.502;16.732;2023-03-01T10:35:41;17.77;;;5.53;;
72319;SDS011;60269;52.502;16.732;2023-03-01T10:39:18;13.77;;;5.15;;
72319;SDS011;60269;52.502;16.732;2023-03-01T10:42:52;14.10;;;5.15;;
72319;SDS011;60269;52.502;16.732;2023-03-01T10:46:26;13.23;;;4.60;;
72319;SDS011;60269;52.502;16.732;2023-03-01T10:50:04;15.48;;;4.65;;
72319;SDS011;60269;52.502;16.732;2023-03-01T10:53:40;13.70;;;4.90;;
72319;SDS011;60269;52.502;16.732;2023-03-01T10:57:24;12.40;;;4.77;;
72319;SDS011;60269;52.502;16.732;2023-03-01T11:01:02;11.95;;;4.80;;
72319;SDS011;60269;52.502;16.732;2023-03-01T11:04:34;11.85;;;4.45;;
72319;SDS011;60269;52.502;16.732;2023-03-01T11:08:06;12.88;;;4.55;;
72319;SDS011;60269;52.502;16.732;2023-03-01T11:11:38;14.83;;;3.93;;
72319;SDS011;60269;52.502;16.732;2023-03-01T11:15:19;10.15;;;4.03;;
72319;SDS011;60269;52.502;16.732;2023-03-01T11:22:59;11.80;;;4.20;;
72319;SDS011;60269;52.502;16.732;2023-03-01T11:26:42;12.10;;;3.75;;
72319;SDS011;60269;52.502;16.732;2023-03-01T11:33:57;12.15;;;3.97;;
72319;SDS011;60269;52.502;16.732;2023-03-01T11:37:40;11.67;;;4.20;;
72319;SDS011;60269;52.502;16.732;2023-03-01T11:41:21;10.73;;;3.85;;
72319;SDS011;60269;52.502;16.732;2023-03-01T11:45:06;11.15;;;4.35;;
72319;SDS011;60269;52.502;16.732;2023-03-01T11:48:46;10.63;;;4.23;;
72319;SDS011;60269;52.502;16.732;2023-03-01T12:07:56;11.50;;;4.63;;
72319;SDS011;60269;52.502;16.732;2023-03-01T12:51:30;9.70;;;3.87;;
72319;SDS011;60269;52.502;16.732;2023-03-01T12:55:06;10.57;;;3.80;;
72319;SDS011;60269;52.502;16.732;2023-03-01T13:02:45;9.13;;;3.30;;
72319;SDS011;60269;52.502;16.732;2023-03-01T13:06:25;12.17;;;3.60;;
72319;SDS011;60269;52.502;16.732;2023-03-01T13:17:58;12.87;;;3.77;;
72319;SDS011;60269;52.502;16.732;2023-03-01T13:21:35;9.70;;;4.13;;
72319;SDS011;60269;52.502;16.732;2023-03-01T13:25:14;8.93;;;3.35;;
72319;SDS011;60269;52.502;16.732;2023-03-01T13:28:51;10.35;;;3.10;;
72319;SDS011;60269;52.502;16.732;2023-03-01T13:32:28;10.80;;;3.70;;
72319;SDS011;60269;52.502;16.732;2023-03-01T13:40:04;10.07;;;3.42;;
72319;SDS011;60269;52.502;16.732;2023-03-01T13:43:56;10.20;;;3.50;;
72319;SDS011;60269;52.502;16.732;2023-03-01T13:47:29;10.77;;;3.53;;
72319;SDS011;60269;52.502;16.732;2023-03-01T13:51:03;12.63;;;3.63;;
72319;SDS011;60269;52.502;16.732;2023-03-01T13:54:37;10.85;;;3.60;;
72319;SDS011;60269;52.502;16.732;2023-03-01T13:58:30;18.42;;;5.03;;
72319;SDS011;60269;52.502;16.732;2023-03-01T14:02:10;12.63;;;3.77;;
72319;SDS011;60269;52.502;16.732;2023-03-01T14:06:06;9.00;;;3.40;;
72319;SDS011;60269;52.502;16.732;2023-03-01T14:09:52;9.38;;;3.35;;
72319;SDS011;60269;52.502;16.732;2023-03-01T14:13:32;10.15;;;3.75;;
72319;SDS011;60269;52.502;16.732;2023-03-01T14:17:27;11.73;;;3.63;;
72319;SDS011;60269;52.502;16.732;2023-03-01T14:21:09;8.80;;;3.40;;
72319;SDS011;60269;52.502;16.732;2023-03-01T14:24:48;9.38;;;3.30;;
72319;SDS011;60269;52.502;16.732;2023-03-01T14:28:24;9.20;;;3.22;;
72319;SDS011;60269;52.502;16.732;2023-03-01T14:32:18;8.87;;;3.67;;
72319;SDS011;60269;52.502;16.732;2023-03-01T14:39:31;12.13;;;4.07;;
72319;SDS011;60269;52.502;16.732;2023-03-01T14:43:10;9.98;;;3.50;;
72319;SDS011;60269;52.502;16.732;2023-03-01T14:46:44;9.27;;;3.23;;
72319;SDS011;60269;52.502;16.732;2023-03-01T14:53:56;10.55;;;3.80;;
72319;SDS011;60269;52.502;16.732;2023-03-01T14:57:29;9.48;;;3.78;;
72319;SDS011;60269;52.502;16.732;2023-03-01T15:01:02;12.97;;;3.90;;
72319;SDS011;60269;52.502;16.732;2023-03-01T15:04:36;11.18;;;3.28;;
72319;SDS011;60269;52.502;16.732;2023-03-01T15:08:16;15.30;;;3.78;;
72319;SDS011;60269;52.502;16.732;2023-03-01T15:11:50;10.53;;;3.40;;
72319;SDS011;60269;52.502;16.732;2023-03-01T15:19:02;8.80;;;3.67;;
72319;SDS011;60269;52.502;16.732;2023-03-01T15:22:36;12.27;;;4.30;;
72319;SDS011;60269;52.502;16.732;2023-03-01T15:26:21;11.73;;;3.93;;
72319;SDS011;60269;52.502;16.732;2023-03-01T15:30:02;11.53;;;3.57;;
72319;SDS011;60269;52.502;16.732;2023-03-01T15:33:35;11.50;;;3.78;;
72319;SDS011;60269;52.502;16.732;2023-03-01T15:37:35;12.30;;;3.95;;
72319;SDS011;60269;52.502;16.732;2023-03-01T15:48:57;16.15;;;4.30;;
72319;SDS011;60269;52.502;16.732;2023-03-01T15:52:57;13.93;;;4.13;;
72319;SDS011;60269;52.502;16.732;2023-03-01T15:56:30;11.97;;;3.97;;
72319;SDS011;60269;52.502;16.732;2023-03-01T16:00:03;11.98;;;3.75;;
72319;SDS011;60269;52.502;16.732;2023-03-01T16:03:43;14.98;;;3.83;;
72319;SDS011;60269;52.502;16.732;2023-03-01T16:07:16;11.30;;;4.03;;
72319;SDS011;60269;52.502;16.732;2023-03-01T16:10:48;10.60;;;3.53;;
72319;SDS011;60269;52.502;16.732;2023-03-01T16:14:22;10.02;;;3.40;;
72319;SDS011;60269;52.502;16.732;2023-03-01T16:17:54;11.02;;;3.78;;
72319;SDS011;60269;52.502;16.732;2023-03-01T16:21:27;10.70;;;3.53;;
72319;SDS011;60269;52.502;16.732;2023-03-01T16:25:00;9.95;;;3.10;;
72319;SDS011;60269;52.502;16.732;2023-03-01T16:28:34;9.80;;;2.95;;
72319;SDS011;60269;52.502;16.732;2023-03-01T16:32:06;11.97;;;3.07;;
72319;SDS011;60269;52.502;16.732;2023-03-01T16:35:39;9.90;;;2.30;;
72319;SDS011;60269;52.502;16.732;2023-03-01T16:39:12;9.90;;;2.80;;
72319;SDS011;60269;52.502;16.732;2023-03-01T16:42:44;12.05;;;3.42;;
72319;SDS011;60269;52.502;16.732;2023-03-01T16:46:24;9.90;;;3.13;;
72319;SDS011;60269;52.502;16.732;2023-03-01T16:49:57;8.48;;;2.50;;
72319;SDS011;60269;52.502;16.732;2023-03-01T16:53:29;12.90;;;3.80;;
72319;SDS011;60269;52.502;16.732;2023-03-01T16:57:02;10.13;;;3.00;;
72319;SDS011;60269;52.502;16.732;2023-03-01T17:00:34;11.55;;;3.65;;
72319;SDS011;60269;52.502;16.732;2023-03-01T17:04:10;13.18;;;3.83;;
72319;SDS011;60269;52.502;16.732;2023-03-01T17:07:43;15.17;;;5.50;;
72319;SDS011;60269;52.502;16.732;2023-03-01T17:11:16;21.02;;;6.82;;
72319;SDS011;60269;52.502;16.732;2023-03-01T17:14:50;17.83;;;6.30;;
72319;SDS011;60269;52.502;16.732;2023-03-01T17:18:22;18.70;;;5.95;;
72319;SDS011;60269;52.502;16.732;2023-03-01T17:21:57;18.30;;;5.23;;
72319;SDS011;60269;52.502;16.732;2023-03-01T17:25:31;19.70;;;5.40;;
72319;SDS011;60269;52.502;16.732;2023-03-01T17:29:04;16.45;;;5.97;;
72319;SDS011;60269;52.502;16.732;2023-03-01T17:32:40;16.17;;;5.90;;
72319;SDS011;60269;52.502;16.732;2023-03-01T17:36:12;19.92;;;6.80;;
72319;SDS011;60269;52.502;16.732;2023-03-01T17:39:44;29.83;;;8.45;;
72319;SDS011;60269;52.502;16.732;2023-03-01T17:43:16;26.60;;;9.27;;
72319;SDS011;60269;52.502;16.732;2023-03-01T17:46:48;28.20;;;10.50;;
72319;SDS011;60269;52.502;16.732;2023-03-01T17:50:21;35.28;;;12.40;;
72319;SDS011;60269;52.502;16.732;2023-03-01T17:53:53;38.55;;;13.68;;
72319;SDS011;60269;52.502;16.732;2023-03-01T17:57:25;37.53;;;12.67;;
72319;SDS011;60269;52.502;16.732;2023-03-01T18:04:58;37.72;;;13.15;;
72319;SDS011;60269;52.502;16.732;2023-03-01T18:08:30;32.57;;;10.77;;
72319;SDS011;60269;52.502;16.732;2023-03-01T18:12:02;28.10;;;10.18;;
72319;SDS011;60269;52.502;16.732;2023-03-01T18:15:34;28.73;;;9.75;;
72319;SDS011;60269;52.502;16.732;2023-03-01T18:19:09;29.67;;;11.23;;
72319;SDS011;60269;52.502;16.732;2023-03-01T18:22:41;31.27;;;11.77;;
72319;SDS011;60269;52.502;16.732;2023-03-01T18:26:14;35.05;;;12.55;;
72319;SDS011;60269;52.502;16.732;2023-03-01T18:29:48;26.10;;;10.80;;
72319;SDS011;60269;52.502;16.732;2023-03-01T18:33:20;29.07;;;11.97;;
72319;SDS011;60269;52.502;16.732;2023-03-01T18:36:52;28.08;;;10.73;;
72319;SDS011;60269;52.502;16.732;2023-03-01T18:40:40;28.48;;;10.18;;
72319;SDS011;60269;52.502;16.732;2023-03-01T18:44:16;23.50;;;9.10;;
72319;SDS011;60269;52.502;16.732;2023-03-01T18:47:47;22.80;;;8.80;;
72319;SDS011;60269;52.502;16.732;2023-03-01T18:51:22;23.77;;;8.75;;
72319;SDS011;60269;52.502;16.732;2023-03-01T18:54:56;27.80;;;9.80;;
72319;SDS011;60269;52.502;16.732;2023-03-01T18:58:29;29.73;;;10.45;;
72319;SDS011;60269;52.502;16.732;2023-03-01T19:02:02;29.40;;;10.85;;
72319;SDS011;60269;52.502;16.732;2023-03-01T19:05:34;38.05;;;12.85;;
72319;SDS011;60269;52.502;16.732;2023-03-01T19:09:06;39.93;;;14.93;;
72319;SDS011;60269;52.502;16.732;2023-03-01T19:12:39;41.58;;;14.65;;
72319;SDS011;60269;52.502;16.732;2023-03-01T19:16:12;36.53;;;14.45;;
72319;SDS011;60269;52.502;16.732;2023-03-01T19:19:51;38.63;;;17.70;;
72319;SDS011;60269;52.502;16.732;2023-03-01T19:23:36;43.58;;;16.75;;
72319;SDS011;60269;52.502;16.732;2023-03-01T19:27:19;36.85;;;13.23;;
72319;SDS011;60269;52.502;16.732;2023-03-01T19:30:56;36.20;;;12.60;;
72319;SDS011;60269;52.502;16.732;2023-03-01T19:34:31;30.42;;;11.02;;
72319;SDS011;60269;52.502;16.732;2023-03-01T19:38:03;37.17;;;11.95;;
72319;SDS011;60269;52.502;16.732;2023-03-01T19:41:35;35.22;;;12.05;;
72319;SDS011;60269;52.502;16.732;2023-03-01T19:45:08;33.77;;;13.40;;
72319;SDS011;60269;52.502;16.732;2023-03-01T19:48:43;31.75;;;12.15;;
72319;SDS011;60269;52.502;16.732;2023-03-01T19:52:15;37.63;;;14.18;;
72319;SDS011;60269;52.502;16.732;2023-03-01T19:55:48;35.47;;;13.50;;
72319;SDS011;60269;52.502;16.732;2023-03-01T19:59:23;40.90;;;14.48;;
72319;SDS011;60269;52.502;16.732;2023-03-01T20:02:56;39.75;;;14.27;;
72319;SDS011;60269;52.502;16.732;2023-03-01T20:06:28;40.10;;;12.93;;
72319;SDS011;60269;52.502;16.732;2023-03-01T20:10:01;27.48;;;11.32;;
72319;SDS011;60269;52.502;16.732;2023-03-01T20:13:33;30.90;;;12.60;;
72319;SDS011;60269;52.502;16.732;2023-03-01T20:17:06;37.53;;;12.95;;
72319;SDS011;60269;52.502;16.732;2023-03-01T20:20:39;36.33;;;13.40;;
72319;SDS011;60269;52.502;16.732;2023-03-01T20:24:11;40.15;;;14.05;;
72319;SDS011;60269;52.502;16.732;2023-03-01T20:27:44;33.20;;;13.05;;
72319;SDS011;60269;52.502;16.732;2023-03-01T20:31:19;37.07;;;13.50;;
72319;SDS011;60269;52.502;16.732;2023-03-01T20:34:52;39.85;;;14.05;;
72319;SDS011;60269;52.502;16.732;2023-03-01T20:38:28;35.72;;;13.05;;
72319;SDS011;60269;52.502;16.732;2023-03-01T20:42:00;37.33;;;14.93;;
72319;SDS011;60269;52.502;16.732;2023-03-01T20:45:32;43.75;;;14.05;;
72319;SDS011;60269;52.502;16.732;2023-03-01T20:49:04;36.95;;;14.10;;
72319;SDS011;60269;52.502;16.732;2023-03-01T20:52:38;42.08;;;14.48;;
72319;SDS011;60269;52.502;16.732;2023-03-01T20:56:18;38.67;;;13.77;;
72319;SDS011;60269;52.502;16.732;2023-03-01T20:59:51;37.08;;;13.35;;
72319;SDS011;60269;52.502;16.732;2023-03-01T21:03:24;37.45;;;13.90;;
72319;SDS011;60269;52.502;16.732;2023-03-01T21:06:56;48.03;;;16.03;;
72319;SDS011;60269;52.502;16.732;2023-03-01T21:10:29;46.55;;;14.75;;
72319;SDS011;60269;52.502;16.732;2023-03-01T21:14:01;42.45;;;14.60;;
72319;SDS011;60269;52.502;16.732;2023-03-01T21:17:36;45.00;;;14.63;;
72319;SDS011;60269;52.502;16.732;2023-03-01T21:21:09;43.05;;;13.95;;
72319;SDS011;60269;52.502;16.732;2023-03-01T21:24:43;37.47;;;14.68;;
72319;SDS011;60269;52.502;16.732;2023-03-01T21:28:15;44.75;;;15.25;;
72319;SDS011;60269;52.502;16.732;2023-03-01T21:31:47;42.37;;;13.50;;
72319;SDS011;60269;52.502;16.732;2023-03-01T21:35:19;43.80;;;14.55;;
72319;SDS011;60269;52.502;16.732;2023-03-01T21:38:52;38.58;;;14.52;;
72319;SDS011;60269;52.502;16.732;2023-03-01T21:42:25;35.93;;;13.13;;
72319;SDS011;60269;52.502;16.732;2023-03-01T21:45:59;38.35;;;15.52;;
72319;SDS011;60269;52.502;16.732;2023-03-01T21:49:32;44.28;;;14.38;;
72319;SDS011;60269;52.502;16.732;2023-03-01T21:53:05;36.80;;;13.93;;
72319;SDS011;60269;52.502;16.732;2023-03-01T21:56:36;43.42;;;14.25;;
72319;SDS011;60269;52.502;16.732;2023-03-01T22:00:10;39.80;;;14.52;;
72319;SDS011;60269;52.502;16.732;2023-03-01T22:03:43;40.92;;;15.35;;
72319;SDS011;60269;52.502;16.732;2023-03-01T22:07:16;35.30;;;13.67;;
72319;SDS011;60269;52.502;16.732;2023-03-01T22:10:51;38.78;;;15.93;;
72319;SDS011;60269;52.502;16.732;2023-03-01T22:14:23;46.08;;;15.50;;
72319;SDS011;60269;52.502;16.732;2023-03-01T22:17:57;43.87;;;15.47;;
72319;SDS011;60269;52.502;16.732;2023-03-01T22:21:29;38.85;;;14.75;;
72319;SDS011;60269;52.502;16.732;2023-03-01T22:25:01;38.83;;;14.88;;
72319;SDS011;60269;52.502;16.732;2023-03-01T22:28:33;45.03;;;17.80;;
72319;SDS011;60269;52.502;16.732;2023-03-01T22:32:05;39.70;;;14.27;;
72319;SDS011;60269;52.502;16.732;2023-03-01T22:35:41;42.50;;;16.75;;
72319;SDS011;60269;52.502;16.732;2023-03-01T22:39:13;44.95;;;17.42;;
72319;SDS011;60269;52.502;16.732;2023-03-01T22:42:48;42.47;;;16.33;;
72319;SDS011;60269;52.502;16.732;2023-03-01T22:46:19;43.67;;;15.35;;
72319;SDS011;60269;52.502;16.732;2023-03-01T22:49:55;41.40;;;16.02;;
72319;SDS011;60269;52.502;16.732;2023-03-01T22:53:27;38.10;;;14.10;;
72319;SDS011;60269;52.502;16.732;2023-03-01T22:56:59;39.45;;;15.68;;